createdAt,value
2017-10-29T00:00:30.929Z,98623.31
2017-10-29T00:01:36.707Z,98621.20
2017-10-29T00:02:43.223Z,98615.28
2017-10-29T00:03:48.982Z,98615.52
2017-10-29T00:04:55.014Z,98610.52
2017-10-29T00:06:01.113Z,98616.29
2017-10-29T00:07:06.885Z,98604.56
2017-10-29T00:08:12.628Z,98594.16
2017-10-29T00:09:18.375Z,98592.73
2017-10-29T00:10:24.105Z,98586.24
2017-10-29T00:11:29.874Z,98590.89
2017-10-29T00:12:35.662Z,98589.80
2017-10-29T00:13:41.317Z,98570.19
2017-10-29T00:14:47.157Z,98580.77
2017-10-29T00:15:52.938Z,98573.80
2017-10-29T00:16:58.715Z,98573.57
2017-10-29T00:18:05.224Z,98565.84
2017-10-29T00:19:10.969Z,98555.58
2017-10-29T00:20:16.723Z,98547.03
2017-10-29T00:21:22.473Z,98557.28
2017-10-29T00:22:28.244Z,98545.78
2017-10-29T00:23:34.825Z,98536.60
2017-10-29T00:24:40.581Z,98533.89
2017-10-29T00:25:46.348Z,98542.42
2017-10-29T00:26:52.094Z,98525.34
2017-10-29T00:27:57.869Z,98521.94
2017-10-29T00:29:04.398Z,98516.62
2017-10-29T00:30:10.481Z,98526.93
2017-10-29T00:31:16.224Z,98516.48
2017-10-29T00:32:21.620Z,98504.30
2017-10-29T00:33:27.414Z,98503.03
2017-10-29T00:34:33.173Z,98498.90
2017-10-29T00:35:38.917Z,98491.23
2017-10-29T00:36:44.659Z,98489.31
2017-10-29T00:37:50.408Z,98481.16
2017-10-29T00:38:56.210Z,98479.47
2017-10-29T00:40:02.708Z,98472.21
2017-10-29T00:41:08.482Z,98460.37
2017-10-29T00:42:13.896Z,98457.96
2017-10-29T00:43:19.640Z,98461.27
2017-10-29T00:44:25.426Z,98466.42
2017-10-29T00:45:31.173Z,98465.15
2017-10-29T00:46:36.915Z,98448.70
2017-10-29T00:47:42.672Z,98454.19
2017-10-29T00:48:48.420Z,98447.23
2017-10-29T00:49:54.203Z,98445.21
2017-10-29T00:50:59.943Z,98440.34
2017-10-29T00:52:05.717Z,98428.59
2017-10-29T00:53:11.457Z,98419.97
2017-10-29T00:54:17.196Z,98422.95
2017-10-29T00:55:22.967Z,98433.93
2017-10-29T00:56:28.708Z,98422.84
2017-10-29T00:57:34.452Z,98412.53
2017-10-29T00:58:40.194Z,98414.16
2017-10-29T00:59:46.024Z,98422.61
2017-10-29T01:00:50.853Z,98418.11
2017-10-29T01:01:55.911Z,98406.00
2017-10-29T01:03:01.322Z,98396.56
2017-10-29T01:04:06.365Z,98410.55
2017-10-29T01:05:12.109Z,98396.05
2017-10-29T01:06:17.893Z,98401.78
2017-10-29T01:07:23.631Z,98382.29
2017-10-29T01:08:29.433Z,98384.63
2017-10-29T01:09:35.169Z,98373.66
2017-10-29T01:10:40.932Z,98365.34
2017-10-29T01:11:47.490Z,98365.13
2017-10-29T01:12:53.233Z,98365.08
2017-10-29T01:13:59.740Z,98362.20
2017-10-29T01:15:05.500Z,98347.45
2017-10-29T01:16:11.224Z,98351.47
2017-10-29T01:17:17.039Z,98335.52
2017-10-29T01:18:23.541Z,98335.94
2017-10-29T01:19:29.285Z,98327.08
2017-10-29T01:20:35.048Z,98332.16
2017-10-29T01:21:40.795Z,98340.69
2017-10-29T01:22:46.560Z,98334.13
2017-10-29T01:23:53.070Z,98325.69
2017-10-29T01:24:58.814Z,98317.84
2017-10-29T01:26:04.208Z,98313.32
2017-10-29T01:27:09.360Z,98308.02
2017-10-29T01:28:15.129Z,98319.40
2017-10-29T01:29:20.886Z,98298.52
2017-10-29T01:30:26.631Z,98287.78
2017-10-29T01:31:32.369Z,98281.48
2017-10-29T01:32:38.115Z,98272.48
2017-10-29T01:33:44.656Z,98286.95
2017-10-29T01:34:50.392Z,98274.83
2017-10-29T01:35:56.176Z,98266.77
2017-10-29T01:37:02.669Z,98263.72
2017-10-29T01:38:08.408Z,98263.23
2017-10-29T01:39:14.234Z,98257.92
2017-10-29T01:40:19.968Z,98249.44
2017-10-29T01:41:25.759Z,98243.44
2017-10-29T01:42:30.566Z,98234.39
2017-10-29T01:43:36.308Z,98240.77
2017-10-29T01:44:42.072Z,98228.36
2017-10-29T01:45:47.821Z,98225.38
2017-10-29T01:46:53.569Z,98227.72
2017-10-29T01:48:00.068Z,98222.97
2017-10-29T01:49:05.812Z,98207.28
2017-10-29T01:50:11.584Z,98204.95
2017-10-29T01:51:17.322Z,98197.25
2017-10-29T01:52:23.841Z,98207.97
2017-10-29T01:53:29.577Z,98210.30
2017-10-29T01:54:35.324Z,98209.97
2017-10-29T01:55:41.086Z,98198.96
2017-10-29T01:56:46.826Z,98204.02
2017-10-29T01:57:52.570Z,98194.70
2017-10-29T01:58:58.320Z,98194.55
2017-10-29T02:00:04.044Z,98181.59
2017-10-29T02:01:09.817Z,98181.17
2017-10-29T02:02:16.173Z,98184.52
2017-10-29T02:03:23.420Z,98173.66
2017-10-29T02:04:29.235Z,98163.74
2017-10-29T02:05:34.981Z,98161.47
2017-10-29T02:06:40.773Z,98153.11
2017-10-29T02:07:46.513Z,98144.06
2017-10-29T02:08:52.251Z,98137.61
2017-10-29T02:09:58.000Z,98124.00
2017-10-29T02:11:03.749Z,98092.52
2017-10-29T02:12:09.509Z,98103.30
2017-10-29T02:13:16.022Z,98098.27
2017-10-29T02:14:21.782Z,98086.88
2017-10-29T02:15:28.344Z,98084.86
2017-10-29T02:16:34.161Z,98079.09
2017-10-29T02:17:39.732Z,98070.67
2017-10-29T02:18:45.472Z,98069.67
2017-10-29T02:19:51.213Z,98068.94
2017-10-29T02:20:56.957Z,98069.08
2017-10-29T02:22:04.212Z,98066.02
2017-10-29T02:23:09.979Z,98069.17
2017-10-29T02:24:15.720Z,98047.78
2017-10-29T02:25:21.468Z,98057.46
2017-10-29T02:26:27.984Z,98047.68
2017-10-29T02:27:33.728Z,98047.07
2017-10-29T02:28:39.497Z,98022.30
2017-10-29T02:29:45.233Z,98032.77
2017-10-29T02:30:51.741Z,98023.12
2017-10-29T02:31:57.477Z,98020.77
2017-10-29T02:33:03.216Z,98015.00
2017-10-29T02:34:08.982Z,98002.72
2017-10-29T02:35:14.727Z,98002.20
2017-10-29T02:36:20.457Z,97997.22
2017-10-29T02:37:26.205Z,98008.20
2017-10-29T02:38:31.936Z,98010.66
2017-10-29T02:39:37.710Z,98004.35
2017-10-29T02:40:43.445Z,97995.41
2017-10-29T02:41:49.188Z,97994.70
2017-10-29T02:42:55.184Z,97989.83
2017-10-29T02:44:01.694Z,97983.22
2017-10-29T02:45:07.456Z,97989.91
2017-10-29T02:46:12.860Z,97981.67
2017-10-29T02:47:18.595Z,97983.02
2017-10-29T02:48:24.346Z,97978.66
2017-10-29T02:49:30.085Z,97981.61
2017-10-29T02:50:35.857Z,97969.71
2017-10-29T02:51:43.100Z,97977.62
2017-10-29T02:52:48.838Z,97964.52
2017-10-29T02:53:54.582Z,97977.23
2017-10-29T02:55:00.320Z,97951.03
2017-10-29T02:56:05.872Z,97955.09
2017-10-29T02:57:11.628Z,97958.95
2017-10-29T02:58:17.361Z,97947.67
2017-10-29T02:59:23.100Z,97958.44
2017-10-29T03:00:28.845Z,97944.83
2017-10-29T03:01:34.608Z,97949.70
2017-10-29T03:02:41.139Z,97960.88
2017-10-29T03:03:46.920Z,97955.31
2017-10-29T03:04:53.436Z,97970.44
2017-10-29T03:05:59.175Z,97958.34
2017-10-29T03:07:04.970Z,97982.64
2017-10-29T03:08:11.480Z,97967.70
2017-10-29T03:09:17.220Z,97972.97
2017-10-29T03:10:23.041Z,97993.61
2017-10-29T03:11:28.553Z,97997.28
2017-10-29T03:12:34.319Z,97990.89
2017-10-29T03:13:40.063Z,97960.99
2017-10-29T03:14:45.800Z,97967.78
2017-10-29T03:15:51.546Z,97955.31
2017-10-29T03:16:57.294Z,97963.63
2017-10-29T03:18:03.048Z,97957.52
2017-10-29T03:19:08.810Z,97949.42
2017-10-29T03:20:14.553Z,97967.49
2017-10-29T03:21:20.340Z,97944.44
2017-10-29T03:22:26.086Z,97949.10
2017-10-29T03:23:31.861Z,97973.00
2017-10-29T03:24:37.606Z,97957.44
2017-10-29T03:25:43.364Z,97950.23
2017-10-29T03:26:49.102Z,97956.63
2017-10-29T03:27:55.613Z,97947.07
2017-10-29T03:29:01.376Z,97954.78
2017-10-29T03:30:07.378Z,97947.28
2017-10-29T03:31:13.886Z,97936.89
2017-10-29T03:32:19.624Z,97916.89
2017-10-29T03:33:25.368Z,97923.17
2017-10-29T03:34:31.166Z,97914.95
2017-10-29T03:35:37.655Z,97900.84
2017-10-29T03:36:43.394Z,97914.05
2017-10-29T03:37:49.137Z,97905.50
2017-10-29T03:38:54.872Z,97912.91
2017-10-29T03:40:00.637Z,97892.31
2017-10-29T03:41:06.021Z,97891.50
2017-10-29T03:42:11.757Z,97898.52
2017-10-29T03:43:17.506Z,97900.62
2017-10-29T03:44:23.248Z,97902.15
2017-10-29T03:45:29.015Z,97905.19
2017-10-29T03:46:34.749Z,97906.42
2017-10-29T03:47:40.499Z,97922.88
2017-10-29T03:48:46.239Z,97919.42
2017-10-29T03:49:51.980Z,97925.91
2017-10-29T03:50:57.747Z,97918.01
2017-10-29T03:52:03.732Z,97915.34
2017-10-29T03:53:10.230Z,97915.25
2017-10-29T03:54:15.970Z,97934.46
2017-10-29T03:55:21.709Z,97913.52
2017-10-29T03:56:27.476Z,97932.11
2017-10-29T03:57:33.302Z,97938.91
2017-10-29T03:58:39.042Z,97937.80
2017-10-29T03:59:44.811Z,97938.10
2017-10-29T04:00:50.584Z,97938.83
2017-10-29T04:01:57.101Z,97928.86
2017-10-29T04:03:02.840Z,97922.05
2017-10-29T04:04:08.571Z,97926.02
2017-10-29T04:05:14.333Z,97936.59
2017-10-29T04:06:20.085Z,97917.29
2017-10-29T04:07:25.849Z,97930.30
2017-10-29T04:08:32.352Z,97930.10
2017-10-29T04:09:38.095Z,97919.41
2017-10-29T04:10:43.848Z,97922.24
2017-10-29T04:11:49.588Z,97931.82
2017-10-29T04:12:55.673Z,97944.92
2017-10-29T04:14:02.197Z,97922.05
2017-10-29T04:15:07.966Z,97959.06
2017-10-29T04:16:14.473Z,97956.22
2017-10-29T04:17:20.229Z,97903.31
2017-10-29T04:18:26.006Z,97941.65
2017-10-29T04:19:32.522Z,97947.48
2017-10-29T04:20:38.256Z,97945.63
2017-10-29T04:21:44.012Z,97933.44
2017-10-29T04:22:49.752Z,97940.74
2017-10-29T04:23:55.515Z,97904.86
2017-10-29T04:25:01.266Z,97939.02
2017-10-29T04:26:06.660Z,97949.20
2017-10-29T04:27:12.412Z,97932.31
2017-10-29T04:28:18.158Z,97955.91
2017-10-29T04:29:23.933Z,97938.14
2017-10-29T04:30:30.508Z,97959.77
2017-10-29T04:31:36.256Z,97948.39
2017-10-29T04:32:42.021Z,97986.20
2017-10-29T04:33:47.773Z,97961.58
2017-10-29T04:34:53.561Z,97976.72
2017-10-29T04:35:59.728Z,97960.38
2017-10-29T04:37:05.482Z,97976.41
2017-10-29T04:38:10.872Z,97957.50
2017-10-29T04:39:17.400Z,97978.55
2017-10-29T04:40:22.488Z,97968.19
2017-10-29T04:41:28.280Z,97978.53
2017-10-29T04:42:33.336Z,97966.34
2017-10-29T04:43:39.846Z,97979.72
2017-10-29T04:44:45.408Z,98001.30
2017-10-29T04:45:50.845Z,98005.55
2017-10-29T04:46:56.589Z,98016.14
2017-10-29T04:48:02.333Z,98030.26
2017-10-29T04:49:07.829Z,98033.21
2017-10-29T04:50:13.565Z,98029.48
2017-10-29T04:51:19.328Z,98038.63
2017-10-29T04:52:25.075Z,98031.25
2017-10-29T04:53:30.813Z,98065.79
2017-10-29T04:54:36.557Z,98031.53
2017-10-29T04:55:42.308Z,98034.92
2017-10-29T04:56:48.071Z,98028.15
2017-10-29T04:57:54.576Z,98019.56
2017-10-29T04:59:00.322Z,98011.93
2017-10-29T05:00:05.521Z,98025.78
2017-10-29T05:01:11.281Z,98035.82
2017-10-29T05:02:17.297Z,98008.45
2017-10-29T05:03:23.807Z,98031.19
2017-10-29T05:04:29.548Z,98034.45
2017-10-29T05:05:34.949Z,98029.07
2017-10-29T05:06:40.693Z,98026.50
2017-10-29T05:07:46.465Z,98027.38
2017-10-29T05:08:52.206Z,98029.19
2017-10-29T05:09:57.942Z,97999.91
2017-10-29T05:11:03.684Z,98038.48
2017-10-29T05:12:09.436Z,98018.72
2017-10-29T05:13:15.204Z,98033.44
2017-10-29T05:14:21.713Z,98055.16
2017-10-29T05:15:27.455Z,98058.05
2017-10-29T05:16:33.196Z,98055.04
2017-10-29T05:17:38.934Z,98043.22
2017-10-29T05:18:44.734Z,98050.33
2017-10-29T05:19:51.244Z,98025.63
2017-10-29T05:20:56.998Z,98073.06
2017-10-29T05:22:02.756Z,98095.44
2017-10-29T05:23:09.264Z,98060.95
2017-10-29T05:24:15.036Z,98074.95
2017-10-29T05:25:20.781Z,98057.36
2017-10-29T05:26:26.533Z,98078.49
2017-10-29T05:27:32.292Z,98098.65
2017-10-29T05:28:38.030Z,98069.14
2017-10-29T05:29:43.798Z,98076.81
2017-10-29T05:30:49.542Z,98098.43
2017-10-29T05:31:55.284Z,98100.39
2017-10-29T05:33:00.848Z,98104.03
2017-10-29T05:34:06.592Z,98113.07
2017-10-29T05:35:12.177Z,98101.22
2017-10-29T05:36:18.681Z,98093.86
2017-10-29T05:37:24.438Z,98104.51
2017-10-29T05:38:30.182Z,98131.81
2017-10-29T05:39:35.935Z,98062.58
2017-10-29T05:40:41.513Z,98122.42
2017-10-29T05:41:48.017Z,98102.44
2017-10-29T05:42:53.577Z,98081.30
2017-10-29T05:43:59.316Z,98107.11
2017-10-29T05:45:04.186Z,98116.20
2017-10-29T05:46:09.956Z,98114.77
2017-10-29T05:47:15.729Z,98118.61
2017-10-29T05:48:21.476Z,98097.31
2017-10-29T05:49:26.867Z,98086.05
2017-10-29T05:50:32.623Z,98109.18
2017-10-29T05:51:38.393Z,98113.61
2017-10-29T05:52:43.954Z,98104.17
2017-10-29T05:53:50.466Z,98134.59
2017-10-29T05:54:56.217Z,98094.66
2017-10-29T05:56:02.715Z,98110.37
2017-10-29T05:57:08.152Z,98118.63
2017-10-29T05:58:13.900Z,98125.39
2017-10-29T05:59:19.652Z,98141.95
2017-10-29T06:00:25.216Z,98131.30
2017-10-29T06:01:31.758Z,98134.47
2017-10-29T06:02:37.538Z,98118.09
2017-10-29T06:03:43.288Z,98140.81
2017-10-29T06:04:49.080Z,98146.39
2017-10-29T06:05:54.859Z,98136.14
2017-10-29T06:07:01.365Z,98135.66
2017-10-29T06:08:06.795Z,98140.45
2017-10-29T06:09:12.571Z,98147.86
2017-10-29T06:10:18.296Z,98142.49
2017-10-29T06:11:24.053Z,98140.38
2017-10-29T06:12:29.802Z,98160.95
2017-10-29T06:13:35.589Z,98156.23
2017-10-29T06:14:41.751Z,98129.88
2017-10-29T06:15:47.493Z,98129.36
2017-10-29T06:16:53.243Z,98161.34
2017-10-29T06:17:58.996Z,98177.88
2017-10-29T06:19:04.760Z,98177.64
2017-10-29T06:20:10.174Z,98151.03
2017-10-29T06:21:15.985Z,98176.93
2017-10-29T06:22:22.279Z,98172.27
2017-10-29T06:23:28.036Z,98180.59
2017-10-29T06:24:33.803Z,98204.43
2017-10-29T06:25:40.317Z,98205.00
2017-10-29T06:26:46.059Z,98188.78
2017-10-29T06:27:51.801Z,98188.88
2017-10-29T06:28:57.540Z,98185.83
2017-10-29T06:30:03.318Z,98203.84
2017-10-29T06:31:09.075Z,98198.03
2017-10-29T06:32:15.619Z,98193.50
2017-10-29T06:33:21.367Z,98205.70
2017-10-29T06:34:28.237Z,98199.06
2017-10-29T06:35:34.777Z,98202.37
2017-10-29T06:36:40.315Z,98191.95
2017-10-29T06:37:46.075Z,98209.73
2017-10-29T06:38:53.890Z,98211.88
2017-10-29T06:39:59.430Z,98207.97
2017-10-29T06:41:05.217Z,98218.64
2017-10-29T06:42:10.965Z,98220.18
2017-10-29T06:43:16.725Z,98214.17
2017-10-29T06:44:23.046Z,98237.86
2017-10-29T06:45:28.808Z,98268.67
2017-10-29T06:46:34.621Z,98225.77
2017-10-29T06:47:40.379Z,98233.25
2017-10-29T06:48:46.133Z,98262.87
2017-10-29T06:49:51.879Z,98254.98
2017-10-29T06:50:57.699Z,98266.41
2017-10-29T06:52:03.464Z,98250.91
2017-10-29T06:53:09.216Z,98230.05
2017-10-29T06:54:15.749Z,98240.80
2017-10-29T06:55:21.136Z,98225.02
2017-10-29T06:56:26.693Z,98257.75
2017-10-29T06:57:32.469Z,98257.62
2017-10-29T06:58:38.401Z,98261.08
2017-10-29T06:59:44.164Z,98246.66
2017-10-29T07:00:49.585Z,98273.35
2017-10-29T07:01:54.978Z,98256.91
2017-10-29T07:03:00.761Z,98208.61
2017-10-29T07:04:06.550Z,98275.67
2017-10-29T07:05:13.083Z,98241.34
2017-10-29T07:06:18.860Z,98272.80
2017-10-29T07:07:24.629Z,98278.57
2017-10-29T07:08:30.401Z,98280.43
2017-10-29T07:09:36.151Z,98320.48
2017-10-29T07:10:41.907Z,98301.14
2017-10-29T07:11:48.478Z,98308.91
2017-10-29T07:12:54.637Z,98307.31
2017-10-29T07:14:00.416Z,98285.39
2017-10-29T07:15:06.162Z,98286.12
2017-10-29T07:16:11.923Z,98301.81
2017-10-29T07:17:17.675Z,98265.64
2017-10-29T07:18:23.425Z,98255.23
2017-10-29T07:19:29.980Z,98261.17
2017-10-29T07:20:36.509Z,98287.56
2017-10-29T07:21:42.254Z,98268.59
2017-10-29T07:22:47.680Z,98279.17
2017-10-29T07:23:53.425Z,98263.58
2017-10-29T07:24:59.224Z,98294.17
2017-10-29T07:26:04.633Z,98302.85
2017-10-29T07:27:12.379Z,98273.67
2017-10-29T07:28:18.128Z,98316.13
2017-10-29T07:29:23.873Z,98296.84
2017-10-29T07:30:29.658Z,98300.43
2017-10-29T07:31:35.400Z,98330.61
2017-10-29T07:32:40.829Z,98327.03
2017-10-29T07:33:46.585Z,98323.39
2017-10-29T07:34:52.339Z,98319.48
2017-10-29T07:35:58.116Z,98331.06
2017-10-29T07:37:03.927Z,98286.97
2017-10-29T07:38:09.372Z,98334.83
2017-10-29T07:39:15.148Z,98308.77
2017-10-29T07:40:20.902Z,98329.92
2017-10-29T07:41:26.028Z,98286.58
2017-10-29T07:42:32.613Z,98360.88
2017-10-29T07:43:38.370Z,98365.08
2017-10-29T07:44:44.146Z,98357.41
2017-10-29T07:45:49.918Z,98305.26
2017-10-29T07:46:56.461Z,98331.48
2017-10-29T07:48:02.221Z,98368.86
2017-10-29T07:49:08.755Z,98387.70
2017-10-29T07:50:14.506Z,98354.67
2017-10-29T07:51:20.276Z,98341.27
2017-10-29T07:52:26.797Z,98336.77
2017-10-29T07:53:32.549Z,98357.50
2017-10-29T07:54:38.292Z,98384.45
2017-10-29T07:55:44.821Z,98350.58
2017-10-29T07:56:50.568Z,98354.23
2017-10-29T07:57:56.341Z,98373.46
2017-10-29T07:59:02.853Z,98385.30
2017-10-29T08:00:08.596Z,98389.77
2017-10-29T08:01:14.338Z,98360.38
2017-10-29T08:02:20.087Z,98417.52
2017-10-29T08:03:25.860Z,98425.91
2017-10-29T08:04:32.389Z,98390.61
2017-10-29T08:05:38.128Z,98385.47
2017-10-29T08:06:43.881Z,98438.52
2017-10-29T08:07:49.660Z,98439.88
2017-10-29T08:08:55.514Z,98433.89
2017-10-29T08:10:02.039Z,98454.43
2017-10-29T08:11:07.117Z,98411.16
2017-10-29T08:12:12.862Z,98426.80
2017-10-29T08:13:18.609Z,98461.42
2017-10-29T08:14:24.055Z,98475.27
2017-10-29T08:15:29.792Z,98469.05
2017-10-29T08:16:35.540Z,98476.36
2017-10-29T08:17:41.284Z,98484.25
2017-10-29T08:18:48.402Z,98453.61
2017-10-29T08:19:54.188Z,98470.45
2017-10-29T08:20:59.936Z,98505.92
2017-10-29T08:22:05.733Z,98493.69
2017-10-29T08:23:11.517Z,98478.15
2017-10-29T08:24:17.281Z,98503.30
2017-10-29T08:25:22.868Z,98519.58
2017-10-29T08:26:28.632Z,98553.41
2017-10-29T08:27:34.381Z,98549.42
2017-10-29T08:28:40.141Z,98552.94
2017-10-29T08:29:45.892Z,98544.26
2017-10-29T08:30:51.665Z,98530.80
2017-10-29T08:31:57.411Z,98548.18
2017-10-29T08:33:04.030Z,98523.80
2017-10-29T08:34:09.790Z,98568.06
2017-10-29T08:35:16.309Z,98548.45
2017-10-29T08:36:22.134Z,98556.89
2017-10-29T08:37:27.907Z,98530.58
2017-10-29T08:38:35.173Z,98590.36
2017-10-29T08:39:40.972Z,98579.45
2017-10-29T08:40:47.510Z,98587.36
2017-10-29T08:41:53.299Z,98601.81
2017-10-29T08:42:59.121Z,98569.27
2017-10-29T08:44:04.923Z,98613.52
2017-10-29T08:45:10.681Z,98599.08
2017-10-29T08:46:17.219Z,98639.09
2017-10-29T08:47:22.817Z,98649.97
2017-10-29T08:48:28.591Z,98688.70
2017-10-29T08:49:34.474Z,98674.02
2017-10-29T08:50:41.157Z,98643.45
2017-10-29T08:51:46.922Z,98654.36
2017-10-29T08:52:52.714Z,98643.16
2017-10-29T08:53:59.705Z,98607.22
2017-10-29T08:55:07.018Z,98637.37
2017-10-29T08:56:12.888Z,98650.67
2017-10-29T08:57:18.672Z,98628.58
2017-10-29T08:58:25.601Z,98640.50
2017-10-29T08:59:31.603Z,98648.38
2017-10-29T09:00:39.287Z,98652.27
2017-10-29T09:01:45.234Z,98663.62
2017-10-29T09:02:51.194Z,98671.23
2017-10-29T09:03:57.047Z,98661.94
2017-10-29T09:05:03.157Z,98665.02
2017-10-29T09:06:09.960Z,98638.94
2017-10-29T09:07:15.936Z,98669.64
2017-10-29T09:08:22.343Z,98636.41
2017-10-29T09:09:29.567Z,98657.01
2017-10-29T09:10:35.999Z,98622.35
2017-10-29T09:11:41.933Z,98620.24
2017-10-29T09:12:47.994Z,98654.05
2017-10-29T09:13:54.229Z,98646.05
2017-10-29T09:15:00.995Z,98640.81
2017-10-29T09:16:07.330Z,98654.61
2017-10-29T09:17:14.251Z,98649.06
2017-10-29T09:18:20.664Z,98648.45
2017-10-29T09:19:27.242Z,98658.67
2017-10-29T09:20:33.504Z,98663.64
2017-10-29T09:21:39.619Z,98655.73
2017-10-29T09:22:46.408Z,98644.71
2017-10-29T09:23:53.428Z,98675.29
2017-10-29T09:25:00.203Z,98676.66
2017-10-29T09:26:08.136Z,98665.91
2017-10-29T09:27:14.128Z,98649.85
2017-10-29T09:28:20.285Z,98675.76
2017-10-29T09:29:26.964Z,98660.65
2017-10-29T09:30:33.673Z,98660.58
2017-10-29T09:31:40.347Z,98645.94
2017-10-29T09:32:46.215Z,98655.81
2017-10-29T09:33:52.157Z,98654.56
2017-10-29T09:34:59.041Z,98662.58
2017-10-29T09:36:04.999Z,98702.92
2017-10-29T09:37:11.858Z,98677.45
2017-10-29T09:38:18.166Z,98694.02
2017-10-29T09:39:25.192Z,98665.72
2017-10-29T09:40:31.396Z,98677.84
2017-10-29T09:41:38.178Z,98706.11
2017-10-29T09:42:44.280Z,98695.14
2017-10-29T09:43:50.570Z,98689.42
2017-10-29T09:44:56.879Z,98697.17
2017-10-29T09:46:03.260Z,98708.70
2017-10-29T09:47:10.124Z,98698.83
2017-10-29T09:48:18.433Z,98713.16
2017-10-29T09:49:25.582Z,98696.56
2017-10-29T09:50:33.164Z,98703.31
2017-10-29T09:51:40.568Z,98693.47
2017-10-29T09:52:46.876Z,98702.81
2017-10-29T09:53:54.008Z,98727.82
2017-10-29T09:55:00.131Z,98706.67
2017-10-29T09:56:07.445Z,98722.41
2017-10-29T09:57:15.443Z,98702.78
2017-10-29T09:58:21.603Z,98715.04
2017-10-29T09:59:28.131Z,98730.66
2017-10-29T10:00:35.097Z,98741.51
2017-10-29T10:01:41.116Z,98733.75
2017-10-29T10:02:47.146Z,98732.97
2017-10-29T10:03:54.943Z,98729.41
2017-10-29T10:05:02.106Z,98732.47
2017-10-29T10:06:08.906Z,98749.45
2017-10-29T10:07:14.996Z,98769.68
2017-10-29T10:08:21.386Z,98744.25
2017-10-29T10:09:28.479Z,98753.78
2017-10-29T10:10:36.742Z,98782.53
2017-10-29T10:11:43.118Z,98775.89
2017-10-29T10:12:50.988Z,98773.98
2017-10-29T10:13:58.137Z,98773.39
2017-10-29T10:15:04.511Z,98789.34
2017-10-29T10:16:11.897Z,98823.38
2017-10-29T10:17:18.370Z,98792.73
2017-10-29T10:18:25.145Z,98793.12
2017-10-29T10:19:31.558Z,98806.59
2017-10-29T10:20:39.627Z,98796.09
2017-10-29T10:21:45.883Z,98805.32
2017-10-29T10:22:52.061Z,98839.27
2017-10-29T10:23:58.493Z,98796.56
2017-10-29T10:25:06.126Z,98813.23
2017-10-29T10:26:13.600Z,98816.20
2017-10-29T10:27:19.758Z,98815.20
2017-10-29T10:28:26.122Z,98836.56
2017-10-29T10:29:36.102Z,98834.25
2017-10-29T10:30:42.921Z,98845.74
2017-10-29T10:31:49.721Z,98813.36
2017-10-29T10:32:59.328Z,98836.72
2017-10-29T10:34:06.430Z,98850.69
2017-10-29T10:35:13.736Z,98858.30
2017-10-29T10:36:20.756Z,98851.27
2017-10-29T10:37:28.877Z,98854.14
2017-10-29T10:38:35.304Z,98852.83
2017-10-29T10:39:41.432Z,98846.59
2017-10-29T10:40:51.378Z,98860.55
2017-10-29T10:41:58.790Z,98871.00
2017-10-29T10:43:05.308Z,98868.82
2017-10-29T10:44:13.127Z,98853.34
2017-10-29T10:45:19.479Z,98871.88
2017-10-29T10:46:25.669Z,98879.00
2017-10-29T10:47:31.932Z,98882.59
2017-10-29T10:48:39.433Z,98877.31
2017-10-29T10:49:45.414Z,98874.95
2017-10-29T10:50:52.147Z,98896.09
2017-10-29T10:51:58.175Z,98866.89
2017-10-29T10:53:06.597Z,98861.15
2017-10-29T10:54:13.382Z,98873.30
2017-10-29T10:55:20.503Z,98887.77
2017-10-29T10:56:26.565Z,98889.38
2017-10-29T10:57:32.852Z,98908.66
2017-10-29T10:58:40.936Z,98906.33
2017-10-29T10:59:47.689Z,98931.17
2017-10-29T11:00:54.131Z,98914.22
2017-10-29T11:02:00.804Z,98923.22
2017-10-29T11:03:07.882Z,98919.73
2017-10-29T11:04:14.151Z,98916.09
2017-10-29T11:05:20.536Z,98924.43
2017-10-29T11:06:27.702Z,98940.78
2017-10-29T11:07:33.722Z,98935.50
2017-10-29T11:08:40.150Z,98936.55
2017-10-29T11:09:46.224Z,98948.50
2017-10-29T11:10:53.087Z,98938.64
2017-10-29T11:11:59.300Z,98955.48
2017-10-29T11:13:05.391Z,98946.73
2017-10-29T11:14:11.521Z,98919.55
2017-10-29T11:15:17.660Z,98946.95
2017-10-29T11:16:23.824Z,98949.33
2017-10-29T11:17:29.999Z,98961.94
2017-10-29T11:18:36.188Z,98957.83
2017-10-29T11:19:42.442Z,98962.13
2017-10-29T11:20:48.584Z,98964.43
2017-10-29T11:21:54.876Z,98967.45
2017-10-29T11:23:00.959Z,98986.19
2017-10-29T11:24:07.660Z,98977.26
2017-10-29T11:25:14.134Z,98981.33
2017-10-29T11:26:21.410Z,98982.73
2017-10-29T11:27:29.270Z,98969.47
2017-10-29T11:28:35.380Z,98992.84
2017-10-29T11:29:41.603Z,98967.37
2017-10-29T11:30:47.743Z,98974.28
2017-10-29T11:31:53.910Z,98957.37
2017-10-29T11:32:59.930Z,98953.36
2017-10-29T11:34:07.226Z,98988.48
2017-10-29T11:35:13.522Z,98980.88
2017-10-29T11:36:20.810Z,98989.63
2017-10-29T11:37:28.447Z,98994.33
2017-10-29T11:38:35.360Z,98985.94
2017-10-29T11:39:41.272Z,98993.40
2017-10-29T11:40:47.715Z,99000.19
2017-10-29T11:41:54.549Z,98995.55
2017-10-29T11:43:01.793Z,99008.03
2017-10-29T11:44:07.803Z,98982.56
2017-10-29T11:45:13.828Z,99009.70
2017-10-29T11:46:19.504Z,99003.47
2017-10-29T11:47:26.270Z,99007.50
2017-10-29T11:48:33.189Z,99013.91
2017-10-29T11:49:39.935Z,99003.98
2017-10-29T11:50:46.580Z,98998.77
2017-10-29T11:51:52.945Z,99006.12
2017-10-29T11:53:00.023Z,99017.47
2017-10-29T11:54:06.319Z,99006.91
2017-10-29T11:55:13.449Z,99007.72
2017-10-29T11:56:19.772Z,99013.13
2017-10-29T11:57:26.248Z,99025.61
2017-10-29T11:58:33.216Z,99027.80
2017-10-29T11:59:39.260Z,99030.69
2017-10-29T12:00:45.359Z,99047.16
2017-10-29T12:01:53.562Z,99043.36
2017-10-29T12:03:00.938Z,99050.77
2017-10-29T12:04:07.978Z,99037.81
2017-10-29T12:05:17.178Z,99043.58
2017-10-29T12:06:24.576Z,99058.44
2017-10-29T12:07:32.561Z,99059.66
2017-10-29T12:08:38.820Z,99056.66
2017-10-29T12:09:44.804Z,99053.53
2017-10-29T12:10:50.953Z,99029.60
2017-10-29T12:11:58.086Z,99060.20
2017-10-29T12:13:04.271Z,99051.66
2017-10-29T12:14:16.221Z,99082.77
2017-10-29T12:15:22.310Z,99078.84
2017-10-29T12:16:30.562Z,99050.02
2017-10-29T12:17:36.688Z,99075.45
2017-10-29T12:18:42.769Z,99080.31
2017-10-29T12:19:48.788Z,99077.98
2017-10-29T12:20:54.828Z,99080.22
2017-10-29T12:22:00.869Z,99080.75
2017-10-29T12:23:07.628Z,99078.64
2017-10-29T12:24:13.793Z,99085.08
2017-10-29T12:25:20.053Z,99085.50
2017-10-29T12:26:26.053Z,99089.28
2017-10-29T12:27:34.289Z,99109.76
2017-10-29T12:28:41.862Z,99087.97
2017-10-29T12:29:53.459Z,99097.23
2017-10-29T12:30:59.598Z,99121.64
2017-10-29T12:32:05.908Z,99113.20
2017-10-29T12:33:14.751Z,99109.52
2017-10-29T12:34:21.461Z,99098.22
2017-10-29T12:35:28.044Z,99116.26
2017-10-29T12:36:35.051Z,99102.78
2017-10-29T12:37:40.713Z,99111.63
2017-10-29T12:38:47.631Z,99111.09
2017-10-29T12:39:53.726Z,99127.88
2017-10-29T12:41:00.554Z,99115.58
2017-10-29T12:42:06.702Z,99138.45
2017-10-29T12:43:12.799Z,99145.43
2017-10-29T12:44:20.560Z,99137.33
2017-10-29T12:45:26.629Z,99141.42
2017-10-29T12:46:32.613Z,99143.20
2017-10-29T12:47:39.325Z,99163.86
2017-10-29T12:48:45.260Z,99143.42
2017-10-29T12:49:51.304Z,99146.34
2017-10-29T12:50:57.354Z,99168.92
2017-10-29T12:52:04.162Z,99136.58
2017-10-29T12:53:10.677Z,99164.22
2017-10-29T12:54:17.485Z,99160.36
2017-10-29T12:55:23.852Z,99182.75
2017-10-29T12:56:29.849Z,99169.98